createdAt,value
2022-12-23T00:02:20.592Z,85563.34
2022-12-23T00:04:47.639Z,85566.06
2022-12-23T00:07:14.603Z,85528.91
2022-12-23T00:09:41.593Z,85550.84
2022-12-23T00:12:27.232Z,85556.34
2022-12-23T00:15:06.392Z,85567.38
2022-12-23T00:17:45.203Z,85545.31
2022-12-23T00:20:15.270Z,85566.03
2022-12-23T00:23:00.613Z,85562.56
2022-12-23T00:25:44.671Z,85550.84
2022-12-23T00:28:20.733Z,85533.63
2022-12-23T00:30:53.555Z,85544.69
2022-12-23T00:33:23.719Z,85511.06
2022-12-23T00:35:51.563Z,85545.41
2022-12-23T00:38:42.581Z,85527.94
2022-12-23T00:41:32.161Z,85545.94
2022-12-23T00:43:59.162Z,85527.34
2022-12-23T00:46:26.211Z,85520.44
2022-12-23T00:49:12.010Z,85520.47
2022-12-23T00:51:38.981Z,85540.38
2022-12-23T00:54:06.700Z,85541.09
2022-12-23T00:56:33.656Z,85532.91
2022-12-23T00:59:00.720Z,85531.53
2022-12-23T01:01:46.505Z,85532.31
2022-12-23T01:04:34.139Z,85492.25
2022-12-23T01:07:01.507Z,85537.00
2022-12-23T01:09:28.738Z,85505.38
2022-12-23T01:11:55.568Z,85530.09
2022-12-23T01:14:22.611Z,85541.75
2022-12-23T01:16:50.069Z,85534.28
2022-12-23T01:19:17.559Z,85538.41
2022-12-23T01:21:44.563Z,85530.16
2022-12-23T01:24:11.656Z,85513.63
2022-12-23T01:26:38.612Z,85499.84
2022-12-23T01:29:05.559Z,85499.84
2022-12-23T01:31:32.526Z,85510.19
2022-12-23T01:33:59.513Z,85504.03
2022-12-23T01:36:26.491Z,85510.25
2022-12-23T01:38:55.289Z,85516.38
2022-12-23T01:41:49.081Z,85519.91
2022-12-23T01:44:57.594Z,85517.22
2022-12-23T01:47:53.545Z,85504.72
2022-12-23T01:50:59.581Z,85512.28
2022-12-23T01:53:28.314Z,85490.19
2022-12-23T01:56:29.643Z,85501.25
2022-12-23T01:59:04.625Z,85499.81
2022-12-23T02:01:50.410Z,85508.00
2022-12-23T02:04:24.368Z,85524.44
2022-12-23T02:07:10.251Z,85516.31
2022-12-23T02:09:39.626Z,85479.19
2022-12-23T02:12:35.173Z,85515.72
2022-12-23T02:15:48.696Z,85516.38
2022-12-23T02:18:21.389Z,85515.00
2022-12-23T02:20:54.051Z,85525.97
2022-12-23T02:23:36.137Z,85485.38
2022-12-23T02:26:30.339Z,85522.47
2022-12-23T02:29:28.861Z,85513.63
2022-12-23T02:32:12.252Z,85482.03
2022-12-23T02:34:54.647Z,85506.16
2022-12-23T02:37:30.256Z,85512.28
2022-12-23T02:40:05.539Z,85516.41
2022-12-23T02:42:50.811Z,85515.72
2022-12-23T02:45:25.922Z,85497.84
2022-12-23T02:47:59.474Z,85500.66
2022-12-23T02:50:33.019Z,85516.41
2022-12-23T02:53:06.672Z,85508.22
2022-12-23T02:55:37.017Z,85501.41
2022-12-23T02:58:09.214Z,85500.00
2022-12-23T03:00:38.599Z,85516.50
2022-12-23T03:03:05.815Z,85512.53
2022-12-23T03:05:43.117Z,85499.50
2022-12-23T03:08:18.762Z,85501.53
2022-12-23T03:11:02.099Z,85481.66
2022-12-23T03:13:46.450Z,85500.19
2022-12-23T03:16:47.208Z,85502.25
2022-12-23T03:19:14.399Z,85491.28
2022-12-23T03:22:25.904Z,85500.19
2022-12-23T03:24:55.760Z,85494.72
2022-12-23T03:27:30.969Z,85493.38
2022-12-23T03:30:04.076Z,85468.69
2022-12-23T03:32:37.252Z,85435.56
2022-12-23T03:35:08.395Z,85481.16
2022-12-23T03:37:39.137Z,85449.38
2022-12-23T03:40:35.100Z,85472.06
2022-12-23T03:43:08.139Z,85481.00
2022-12-23T03:45:45.368Z,85454.88
2022-12-23T03:48:18.507Z,85459.59
2022-12-23T03:50:49.144Z,85450.69
2022-12-23T03:53:25.598Z,85469.19
2022-12-23T03:55:56.953Z,85453.47
2022-12-23T03:58:43.323Z,85485.09
2022-12-23T04:01:25.447Z,85475.56
2022-12-23T04:04:11.152Z,85472.84
2022-12-23T04:06:53.277Z,85464.41
2022-12-23T04:09:22.555Z,85456.78
2022-12-23T04:11:49.840Z,85475.44
2022-12-23T04:14:21.209Z,85461.00
2022-12-23T04:16:53.017Z,85474.69
2022-12-23T04:19:19.970Z,85491.28
2022-12-23T04:21:46.943Z,85493.94
2022-12-23T04:24:14.360Z,85496.00
2022-12-23T04:26:41.331Z,85487.03
2022-12-23T04:29:08.207Z,85471.16
2022-12-23T04:31:35.205Z,85459.47
2022-12-23T04:34:02.174Z,85476.75
2022-12-23T04:36:29.020Z,85464.34
2022-12-23T04:38:55.971Z,85473.91
2022-12-23T04:41:24.249Z,85483.53
2022-12-23T04:43:53.289Z,85500.63
2022-12-23T04:46:20.694Z,85482.66
2022-12-23T04:48:47.776Z,85504.69
2022-12-23T04:51:15.077Z,85502.66
2022-12-23T04:53:41.972Z,85478.72
2022-12-23T04:56:08.950Z,85487.59
2022-12-23T04:58:35.919Z,85465.59
2022-12-23T05:01:06.203Z,85500.66
2022-12-23T05:03:33.341Z,85498.63
2022-12-23T05:06:00.655Z,85495.84
2022-12-23T05:08:28.180Z,85501.28
2022-12-23T05:10:55.359Z,85483.47
2022-12-23T05:13:22.737Z,85490.38
2022-12-23T05:15:51.271Z,85488.97
2022-12-23T05:18:18.348Z,85488.31
2022-12-23T05:20:45.837Z,85466.25
2022-12-23T05:23:12.739Z,85483.50
2022-12-23T05:25:40.121Z,85429.78
2022-12-23T05:28:10.584Z,85504.03
2022-12-23T05:30:37.622Z,85487.56
2022-12-23T05:33:04.649Z,85510.78
2022-12-23T05:35:31.654Z,85484.63
2022-12-23T05:37:58.764Z,85483.16
2022-12-23T05:40:30.027Z,85524.41
2022-12-23T05:42:59.600Z,85509.22
2022-12-23T05:45:26.589Z,85516.25
2022-12-23T05:47:53.648Z,85479.78
2022-12-23T05:50:20.518Z,85485.81
2022-12-23T05:52:48.827Z,85502.56
2022-12-23T05:55:15.854Z,85491.47
2022-12-23T05:57:42.817Z,85492.84
2022-12-23T06:00:10.255Z,85520.38
2022-12-23T06:02:41.245Z,85512.13
2022-12-23T06:05:09.193Z,85505.19
2022-12-23T06:07:36.475Z,85533.47
2022-12-23T06:10:05.276Z,85528.13
2022-12-23T06:12:32.376Z,85538.38
2022-12-23T06:14:59.310Z,85512.16
2022-12-23T06:17:26.358Z,85532.91
2022-12-23T06:19:53.273Z,85535.63
2022-12-23T06:22:23.764Z,85508.22
2022-12-23T06:24:50.707Z,85520.63
2022-12-23T06:27:18.098Z,85532.41
2022-12-23T06:29:44.997Z,85495.28
2022-12-23T06:32:12.371Z,85535.78
2022-12-23T06:34:39.317Z,85535.19
2022-12-23T06:37:06.332Z,85506.38
2022-12-23T06:39:33.284Z,85531.22
2022-12-23T06:42:00.308Z,85500.38
2022-12-23T06:44:27.271Z,85515.63
2022-12-23T06:46:54.206Z,85541.72
2022-12-23T06:49:21.193Z,85513.56
2022-12-23T06:51:48.180Z,85544.31
2022-12-23T06:54:15.253Z,85519.66
2022-12-23T06:56:42.293Z,85459.13
2022-12-23T06:59:09.354Z,85541.72
2022-12-23T07:01:36.448Z,85519.72
2022-12-23T07:04:03.653Z,85500.44
2022-12-23T07:06:30.698Z,85549.44
2022-12-23T07:08:57.716Z,85518.59
2022-12-23T07:11:24.681Z,85536.47
2022-12-23T07:13:51.615Z,85537.97
2022-12-23T07:16:18.651Z,85460.91
2022-12-23T07:18:45.716Z,85507.75
2022-12-23T07:21:21.192Z,85549.03
2022-12-23T07:23:51.734Z,85546.34
2022-12-23T07:26:18.652Z,85547.72
2022-12-23T07:28:47.964Z,85551.81
2022-12-23T07:31:16.051Z,85549.84
2022-12-23T07:33:43.214Z,85535.47
2022-12-23T07:36:10.302Z,85534.78
2022-12-23T07:38:37.352Z,85552.66
2022-12-23T07:41:04.511Z,85551.97
2022-12-23T07:43:31.577Z,85490.25
2022-12-23T07:46:00.684Z,85523.28
2022-12-23T07:48:28.151Z,85499.97
2022-12-23T07:51:02.574Z,85538.47
2022-12-23T07:53:29.958Z,85516.47
2022-12-23T07:55:57.265Z,85516.56
2022-12-23T07:58:24.818Z,85516.56
2022-12-23T08:00:51.916Z,85557.13
2022-12-23T08:03:21.552Z,85541.44
2022-12-23T08:05:48.600Z,85552.47
2022-12-23T08:08:15.550Z,85531.91
2022-12-23T08:10:48.113Z,85552.56
2022-12-23T08:13:15.725Z,85558.06
2022-12-23T08:15:42.704Z,85551.22
2022-12-23T08:18:09.643Z,85546.44
2022-12-23T08:20:36.561Z,85558.13
2022-12-23T08:23:03.550Z,85556.06
2022-12-23T08:25:30.483Z,85539.63
2022-12-23T08:27:57.399Z,85548.56
2022-12-23T08:30:24.333Z,85547.19
2022-12-23T08:32:51.368Z,85558.19
2022-12-23T08:35:18.413Z,85543.09
2022-12-23T08:37:45.434Z,85549.94
2022-12-23T08:40:12.540Z,85531.41
2022-12-23T08:42:39.535Z,85547.22
2022-12-23T08:45:06.915Z,85490.94
2022-12-23T08:47:34.252Z,85538.28
2022-12-23T08:50:01.195Z,85540.34
2022-12-23T08:52:28.314Z,85533.47
2022-12-23T08:54:55.320Z,85516.31
2022-12-23T08:57:22.300Z,85499.88
2022-12-23T08:59:49.314Z,85490.94
2022-12-23T09:02:16.804Z,85493.69
2022-12-23T09:04:43.921Z,85464.88
2022-12-23T09:07:10.911Z,85507.38
2022-12-23T09:09:38.484Z,85510.81
2022-12-23T09:12:05.574Z,85490.91
2022-12-23T09:14:32.538Z,85506.66
2022-12-23T09:16:59.594Z,85526.56
2022-12-23T09:19:26.544Z,85525.19
2022-12-23T09:21:53.491Z,85521.03
2022-12-23T09:24:20.394Z,85488.78
2022-12-23T09:26:47.368Z,85492.91
2022-12-23T09:29:14.235Z,85489.44
2022-12-23T09:31:41.394Z,85477.03
2022-12-23T09:34:11.172Z,85516.75
2022-12-23T09:36:38.053Z,85511.19
2022-12-23T09:39:05.038Z,85504.38
2022-12-23T09:42:07.344Z,85516.72
2022-12-23T09:44:46.338Z,85515.28
2022-12-23T09:47:17.435Z,85511.09
2022-12-23T09:49:52.208Z,85511.03
2022-12-23T09:52:28.736Z,85511.69
2022-12-23T09:54:56.042Z,85512.38
2022-12-23T09:57:37.136Z,85513.72
2022-12-23T10:00:09.785Z,85520.56
2022-12-23T10:03:14.571Z,85510.97
2022-12-23T10:06:08.533Z,85512.22
2022-12-23T10:08:41.045Z,85493.66
2022-12-23T10:11:13.838Z,85501.16
2022-12-23T10:14:23.758Z,85503.88
2022-12-23T10:17:07.647Z,85490.09
2022-12-23T10:19:42.154Z,85492.72
2022-12-23T10:22:21.102Z,85495.44
2022-12-23T10:24:49.102Z,85489.16
2022-12-23T10:27:40.470Z,85467.91
2022-12-23T10:30:34.272Z,85493.19
2022-12-23T10:33:02.696Z,85492.41
2022-12-23T10:36:07.314Z,85495.09
2022-12-23T10:38:41.369Z,85491.81
2022-12-23T10:41:30.622Z,85497.94
2022-12-23T10:44:13.288Z,85496.53
2022-12-23T10:46:52.717Z,85455.41
2022-12-23T10:49:38.010Z,85488.84
2022-12-23T10:52:25.078Z,85492.81
2022-12-23T10:54:52.012Z,85489.38
2022-12-23T10:57:20.672Z,85488.09
2022-12-23T10:59:47.844Z,85486.66
2022-12-23T11:02:15.081Z,85497.59
2022-12-23T11:04:47.972Z,85477.03
2022-12-23T11:07:49.641Z,85474.28
2022-12-23T11:10:20.938Z,85496.13
2022-12-23T11:12:51.007Z,85473.56
2022-12-23T11:15:39.256Z,85497.50
2022-12-23T11:18:12.485Z,85500.28
2022-12-23T11:20:44.450Z,85500.84
2022-12-23T11:23:25.695Z,85486.38
2022-12-23T11:26:20.288Z,85489.84
2022-12-23T11:28:53.439Z,85478.28
2022-12-23T11:31:28.800Z,85498.19
2022-12-23T11:33:57.957Z,85489.25
2022-12-23T11:36:28.189Z,85476.91
2022-12-23T11:39:14.424Z,85502.16
2022-12-23T11:41:51.083Z,85502.34
2022-12-23T11:44:24.175Z,85487.78
2022-12-23T11:46:51.405Z,85460.41
2022-12-23T11:49:27.491Z,85498.09
2022-12-23T11:52:01.909Z,85493.25
2022-12-23T11:54:29.521Z,85501.56
2022-12-23T11:56:57.332Z,85465.25
2022-12-23T11:59:42.870Z,85476.94
2022-12-23T12:02:32.831Z,85496.03
2022-12-23T12:05:05.498Z,85468.59
2022-12-23T12:07:33.438Z,85498.72
2022-12-23T12:10:02.144Z,85471.25
2022-12-23T12:12:30.492Z,85474.75
2022-12-23T12:14:59.962Z,85444.03
2022-12-23T12:17:42.498Z,85502.91
2022-12-23T12:20:24.585Z,85507.78
2022-12-23T12:22:54.612Z,85505.09
2022-12-23T12:25:43.256Z,85492.81
2022-12-23T12:28:22.641Z,85507.16
2022-12-23T12:31:15.641Z,85485.91
2022-12-23T12:33:56.351Z,85505.81
2022-12-23T12:36:39.098Z,85509.94
2022-12-23T12:39:14.065Z,85517.59
2022-12-23T12:41:51.128Z,85476.56
2022-12-23T12:44:51.593Z,85474.56
2022-12-23T12:47:52.192Z,85512.22
2022-12-23T12:50:27.983Z,85519.16
2022-12-23T12:53:00.433Z,85526.78
2022-12-23T12:55:36.511Z,85518.03
2022-12-23T12:58:03.909Z,85530.47
2022-12-23T13:00:49.273Z,85528.41
2022-12-23T13:03:48.035Z,85538.06
2022-12-23T13:06:40.470Z,85501.84
2022-12-23T13:09:37.414Z,85547.84
2022-12-23T13:12:19.356Z,85542.34
2022-12-23T13:15:18.557Z,85545.16
2022-12-23T13:18:07.233Z,85550.75
2022-12-23T13:20:42.549Z,85528.88
2022-12-23T13:26:40.492Z,85553.59
2022-12-23T13:29:25.551Z,85539.94
2022-12-23T13:32:19.206Z,85527.59
2022-12-23T13:35:00.115Z,85535.13
2022-12-23T13:37:50.296Z,85548.19
2022-12-23T13:40:41.856Z,85552.97
2022-12-23T13:43:16.187Z,85508.44
2022-12-23T13:45:46.421Z,85554.38
2022-12-23T13:48:29.432Z,85551.66
2022-12-23T13:51:02.422Z,85545.44
2022-12-23T13:53:47.572Z,85533.13
2022-12-23T13:56:24.044Z,85546.19
2022-12-23T13:58:51.870Z,85546.19
2022-12-23T14:01:31.603Z,85548.28
2022-12-23T14:04:35.838Z,85538.63
2022-12-23T14:07:16.768Z,85545.50
2022-12-23T14:09:51.396Z,85509.88
2022-12-23T14:12:36.841Z,85546.81
2022-12-23T14:15:22.221Z,85544.13
2022-12-23T14:17:49.149Z,85557.19
2022-12-23T14:20:29.483Z,85511.94
2022-12-23T14:23:05.697Z,85556.53
2022-12-23T14:25:46.302Z,85533.22
2022-12-23T14:28:23.833Z,85554.53
2022-12-23T14:30:51.137Z,85544.22
2022-12-23T14:33:30.386Z,85533.91
2022-12-23T14:36:15.113Z,85521.56
2022-12-23T14:38:42.304Z,85544.28
2022-12-23T14:41:37.018Z,85544.25
2022-12-23T14:44:04.113Z,85492.88
2022-12-23T14:46:37.115Z,85568.97
2022-12-23T14:49:36.836Z,85568.97
2022-12-23T14:51:51.247Z,85540.19
2022-12-23T14:54:37.513Z,85530.56
2022-12-23T14:57:13.815Z,85542.19
2022-12-23T14:59:57.170Z,85574.41
2022-12-23T15:02:35.442Z,85573.78
2022-12-23T15:05:03.033Z,85560.75
2022-12-23T15:07:35.491Z,85560.06
2022-12-23T15:10:06.761Z,85584.09
2022-12-23T15:12:40.160Z,85555.25
2022-12-23T15:15:13.582Z,85551.16
2022-12-23T15:17:40.723Z,85555.97
2022-12-23T15:20:11.266Z,85582.69
2022-12-23T15:22:40.086Z,85510.00
2022-12-23T15:25:19.612Z,85472.31
2022-12-23T15:27:46.769Z,85563.47
2022-12-23T15:30:15.181Z,85549.75
2022-12-23T15:32:44.537Z,85596.44
2022-12-23T15:35:22.449Z,85560.72
2022-12-23T15:37:50.851Z,85568.97
2022-12-23T15:40:24.014Z,85592.28
2022-12-23T15:42:51.142Z,85594.34
2022-12-23T15:45:39.918Z,85588.84
2022-12-23T15:48:22.850Z,85593.69
2022-12-23T15:50:52.926Z,85492.94
2022-12-23T15:53:20.712Z,85599.19
2022-12-23T15:55:49.253Z,85568.31
2022-12-23T15:58:25.406Z,85600.53
2022-12-23T16:00:55.736Z,85559.38
2022-12-23T16:03:34.593Z,85602.56
2022-12-23T16:06:07.583Z,85596.34
2022-12-23T16:08:34.673Z,85593.66
2022-12-23T16:11:13.434Z,85598.50
2022-12-23T16:13:47.301Z,85558.75
2022-12-23T16:16:34.451Z,85560.75
2022-12-23T16:19:01.658Z,85566.22
2022-12-23T16:21:33.745Z,85614.28
2022-12-23T16:24:03.134Z,85608.06
2022-12-23T16:26:30.187Z,85577.28
2022-12-23T16:29:01.137Z,85602.59
2022-12-23T16:31:28.403Z,85604.66
2022-12-23T16:33:59.458Z,85611.50
2022-12-23T16:36:26.365Z,85608.06
2022-12-23T16:39:01.157Z,85607.38
2022-12-23T16:41:28.051Z,85588.16
2022-12-23T16:43:55.055Z,85631.44
2022-12-23T16:46:23.692Z,85600.53
2022-12-23T16:48:55.435Z,85584.78
2022-12-23T16:51:23.642Z,85620.41
2022-12-23T16:53:52.673Z,85576.53
2022-12-23T16:56:20.549Z,85522.38
2022-12-23T16:58:47.697Z,85553.25
2022-12-23T17:01:18.177Z,85621.84
2022-12-23T17:03:45.250Z,85624.56
2022-12-23T17:06:17.109Z,85596.47
2022-12-23T17:08:44.138Z,85611.53
2022-12-23T17:11:25.985Z,85590.94
2022-12-23T17:13:59.618Z,85584.06
2022-12-23T17:16:30.386Z,85599.22
2022-12-23T17:18:57.448Z,85597.16
2022-12-23T17:21:30.751Z,85627.34
2022-12-23T17:24:10.449Z,85628.03
2022-12-23T17:26:37.546Z,85607.47
2022-12-23T17:29:05.681Z,85574.53
2022-12-23T17:31:34.430Z,85622.59
2022-12-23T17:34:02.321Z,85599.22
2022-12-23T17:36:29.878Z,85614.34
2022-12-23T17:38:56.999Z,85609.53
2022-12-23T17:41:32.388Z,85598.59
2022-12-23T17:43:59.956Z,85604.75
2022-12-23T17:46:29.081Z,85567.75
2022-12-23T17:48:58.622Z,85543.75
2022-12-23T17:51:26.903Z,85614.44
2022-12-23T17:54:04.745Z,85574.63
2022-12-23T17:56:31.755Z,85629.53
2022-12-23T17:58:58.823Z,85597.28
2022-12-23T18:01:31.439Z,85624.03
2022-12-23T18:04:00.224Z,85586.28
2022-12-23T18:06:28.875Z,85555.41
2022-12-23T18:08:58.925Z,85565.72
2022-12-23T18:11:42.008Z,85624.03
2022-12-23T18:14:28.060Z,85576.72
2022-12-23T18:16:55.292Z,85578.78
2022-12-23T18:19:22.315Z,85593.88
2022-12-23T18:21:50.592Z,85576.72
2022-12-23T18:24:18.440Z,85595.25
2022-12-23T18:26:45.492Z,85618.59
2022-12-23T18:29:12.548Z,85626.84
2022-12-23T18:31:50.931Z,85609.69
2022-12-23T18:34:19.911Z,85626.16
2022-12-23T18:36:48.479Z,85592.50
2022-12-23T18:39:15.728Z,85630.97
2022-12-23T18:41:42.757Z,85617.94
2022-12-23T18:44:21.201Z,85589.75
2022-12-23T18:46:49.131Z,85633.69
2022-12-23T18:49:16.212Z,85630.97
2022-12-23T18:51:43.254Z,85637.84
2022-12-23T18:54:15.100Z,85630.28
2022-12-23T18:56:42.811Z,85633.00
2022-12-23T18:59:15.777Z,85639.19
2022-12-23T19:01:42.874Z,85649.50
2022-12-23T19:04:10.018Z,85603.50
2022-12-23T19:06:38.157Z,85604.19
2022-12-23T19:09:05.672Z,85649.50
2022-12-23T19:11:32.705Z,85602.81
2022-12-23T19:13:59.645Z,85625.47
2022-12-23T19:16:26.682Z,85611.72
2022-12-23T19:18:53.605Z,85624.09
2022-12-23T19:21:20.776Z,85606.22
2022-12-23T19:23:47.841Z,85595.22
2022-12-23T19:26:15.377Z,85650.19
2022-12-23T19:28:42.678Z,85651.53
2022-12-23T19:31:12.071Z,85647.44
2022-12-23T19:33:40.001Z,85652.94
2022-12-23T19:36:12.192Z,85626.81
2022-12-23T19:38:39.265Z,85607.56
2022-12-23T19:41:07.595Z,85651.53
2022-12-23T19:43:35.695Z,85615.13
2022-12-23T19:46:06.261Z,85652.91
2022-12-23T19:48:33.900Z,85655.63
2022-12-23T19:51:03.792Z,85616.47
2022-12-23T19:53:30.829Z,85613.06
2022-12-23T19:56:07.374Z,85614.44
2022-12-23T19:58:36.214Z,85633.69
2022-12-23T20:01:12.165Z,85655.66
2022-12-23T20:03:40.498Z,85658.41
2022-12-23T20:06:13.182Z,85608.22
2022-12-23T20:08:40.811Z,85652.91
2022-12-23T20:11:10.060Z,85646.69
2022-12-23T20:13:37.525Z,85637.09
2022-12-23T20:16:06.094Z,85632.31
2022-12-23T20:18:33.319Z,85587.66
2022-12-23T20:21:01.281Z,85585.59
2022-12-23T20:23:29.687Z,85602.06
2022-12-23T20:25:56.861Z,85603.44
2022-12-23T20:28:24.017Z,85639.16
2022-12-23T20:31:04.650Z,85641.91
2022-12-23T20:33:31.679Z,85638.47
2022-12-23T20:35:58.700Z,85633.00
2022-12-23T20:38:25.815Z,85600.69
2022-12-23T20:40:52.702Z,85589.69
2022-12-23T20:43:19.676Z,85625.41
2022-12-23T20:45:46.627Z,85622.63
2022-12-23T20:48:13.542Z,85592.41
2022-12-23T20:50:40.953Z,85607.50
2022-12-23T20:53:08.210Z,85617.16
2022-12-23T20:55:35.208Z,85633.63
2022-12-23T20:58:22.475Z,85612.31
2022-12-23T21:00:49.859Z,85619.84
2022-12-23T21:03:17.179Z,85641.81
2022-12-23T21:05:44.477Z,85606.09
2022-12-23T21:08:11.643Z,85579.28
2022-12-23T21:10:39.643Z,85575.75
2022-12-23T21:13:06.579Z,85617.75
2022-12-23T21:15:33.583Z,85629.41
2022-12-23T21:18:00.554Z,85662.41
2022-12-23T21:20:27.617Z,85641.06
2022-12-23T21:22:54.739Z,85628.63
2022-12-23T21:25:21.735Z,85659.53
2022-12-23T21:27:48.697Z,85667.78
2022-12-23T21:30:15.794Z,85656.13
2022-12-23T21:32:42.763Z,85627.94
2022-12-23T21:35:10.205Z,85661.59
2022-12-23T21:37:40.302Z,85636.84
2022-12-23T21:40:08.125Z,85655.41
2022-12-23T21:42:35.217Z,85626.28
2022-12-23T21:45:02.253Z,85635.94
2022-12-23T21:47:29.463Z,85649.66
2022-12-23T21:49:56.575Z,85597.97
2022-12-23T21:52:23.803Z,85631.53
2022-12-23T21:54:50.920Z,85569.66
2022-12-23T21:57:18.141Z,85642.56
2022-12-23T21:59:45.147Z,85645.31
2022-12-23T22:02:16.693Z,85584.81
2022-12-23T22:04:43.848Z,85611.53
2022-12-23T22:07:10.841Z,85641.19
2022-12-23T22:09:37.868Z,85631.63
2022-12-23T22:12:05.378Z,85637.09
2022-12-23T22:14:32.437Z,85637.03
2022-12-23T22:16:59.371Z,85632.81
2022-12-23T22:19:26.289Z,85572.91
2022-12-23T22:21:53.256Z,85620.34
2022-12-23T22:24:20.297Z,85630.09
2022-12-23T22:26:47.399Z,85625.97
2022-12-23T22:29:14.428Z,85603.31
2022-12-23T22:31:44.398Z,85620.63
2022-12-23T22:34:20.383Z,85619.88
2022-12-23T22:36:48.356Z,85621.88
2022-12-23T22:39:20.993Z,85625.97
2022-12-23T22:41:50.639Z,85631.44
2022-12-23T22:44:17.792Z,85546.09
2022-12-23T22:46:45.029Z,85641.69
2022-12-23T22:49:14.013Z,85630.09
2022-12-23T22:51:42.496Z,85644.41
2022-12-23T22:54:09.997Z,85643.78
2022-12-23T22:56:37.007Z,85646.53
2022-12-23T22:59:04.979Z,85637.69
2022-12-23T23:01:34.923Z,85621.78
2022-12-23T23:04:03.711Z,85634.97
2022-12-23T23:06:37.784Z,85634.31
2022-12-23T23:09:11.853Z,85633.66
2022-12-23T23:11:39.247Z,85612.25
2022-12-23T23:14:06.233Z,85620.53
2022-12-23T23:16:33.692Z,85641.19
2022-12-23T23:19:01.900Z,85628.84
2022-12-23T23:21:28.909Z,85634.31
2022-12-23T23:23:56.079Z,85632.94
2022-12-23T23:26:26.924Z,85617.75
2022-12-23T23:28:55.740Z,85586.16
2022-12-23T23:34:10.549Z,85588.94
2022-12-23T23:36:37.503Z,85643.94
2022-12-23T23:39:04.539Z,85635.72
2022-12-23T23:41:31.882Z,85639.84
2022-12-23T23:43:58.885Z,85616.44
2022-12-23T23:46:25.930Z,85641.91
2022-12-23T23:48:52.937Z,85634.34
2022-12-23T23:51:19.887Z,85611.69
2022-12-23T23:53:46.848Z,85644.69
2022-12-23T23:56:13.968Z,85620.63
2022-12-23T23:58:40.936Z,85644.00
